Roche Harbor, Washington
Current Conditions -  °F | °C
As of 3:06 AM on Monday 20 Oct 2014 (Local Time) from KFHR Reporting Station
Overcast Overcast  
Wind Chill: 55°   Ceiling: 10000
Heat Index: 55°   Visibility: 10mi
Dew Point: 54°   Wind: 0mph
Humidity: 96%   Direction: NA
Pressure: 29.67"   Gusts: NA
Location:  48.5377°N, 123.083°W
Report Text: KFHR 201006Z AUTO 00000KT 10SM SCT021 OVC100 13/12 A2967 RMK AO2 T01280122
Loading
Personal Weather Stations






























Interactive Weather Map
Tropical Storm Tracking
New forecast layout! Learn more

10-Day Weather Forecast

Advertisements
Track Severe Weather on mobile